Tropical Cyclones
[Index]
Main Index Home Page Stock Weather Photos Extreme Storms Discussion Storm News and Storm Chasing Reports Tropical Cyclones / Hurricanes / Typhoons Weather Data and Links Wild Fires / Bushfires Weather Observation Techniques Weather Picture Catalogue Tornado Pictures and Reports Stock Video Footage and DVDs for sale
Season 1995-1996 Tropical Cyclone BONITA Track Map
Season 1995-1996 Summaries: [BoM-AU] [JTWC-AU] [JTWC-SIO] [JTWC-SPAC] [JTWC-SH]
<<- Previous TC | JTWC 1995-1996 Season | Next TC ->>

click for intensity scale information  Lat/long Grid: Show Hide

 Date Labels: Show Hide

Joint Typhoon Warning Centre Cyclone Data

Name: BONITA

31 Dec 1995 18:00 UTC to 15 Jan 1996 06:00 UTC

    date/time    lat    long     hPa   cat  kts
1995-12-31 18    8.0    75.0                  15          
1996-01-01 00    8.4    74.6                  15          
1996-01-01 06    8.7    74.4                  15          
1996-01-01 12    9.0    74.1                  15          
1996-01-01 18    9.3    73.8                  20          
1996-01-02 00    9.6    73.3                  20          
1996-01-02 06    9.8    72.9                  20          
1996-01-02 12   10.2    72.4                  20          
1996-01-02 18   10.5    72.0                  20          
1996-01-03 00   10.8    71.7                  20          
1996-01-03 06   11.1    71.5                  25          
1996-01-03 12   11.4    71.3                  25          
1996-01-03 18   11.6    71.2                  25          
1996-01-04 00   11.8    71.1                  25          
1996-01-04 06   12.1    71.0                  25          
1996-01-04 12   12.4    70.9                  25          
1996-01-04 18   12.7    70.8                  25          
1996-01-05 00   13.1    70.6                  25          
1996-01-05 06   13.6    70.2                  30          
1996-01-05 12   14.0    69.6                  30          
1996-01-05 18   14.4    68.9                  30          
1996-01-06 00   14.6    68.0                  30          
1996-01-06 06   14.7    66.9                  35          
1996-01-06 12   14.8    65.7                  35          
1996-01-06 18   14.9    64.4                  35          
1996-01-07 00   15.3    63.2            1     45          
1996-01-07 06   15.7    62.4            2     55          
1996-01-07 12   16.2    61.4            2     60          
1996-01-07 18   16.4    60.5            3     75          
1996-01-08 00   16.8    59.5            3     90          
1996-01-08 06   17.4    58.8            4    100          
1996-01-08 12   17.8    57.8            4    115          
1996-01-08 18   18.2    56.6            4    115          
1996-01-09 00   18.5    55.5            4    120          
1996-01-09 06   18.6    54.9            5    130          
1996-01-09 12   18.7    54.3            5    135          
1996-01-09 18   18.6    53.4            5    135          
1996-01-10 00   18.5    52.6            5    135          
1996-01-10 06   18.4    52.0            5    130          
1996-01-10 12   18.2    51.3            5    125          
1996-01-10 18   17.9    50.6            4    115          
1996-01-11 00   17.5    49.3            4    110          
1996-01-11 06   17.2    47.9            4    100          
1996-01-11 12   17.0    46.5            3     75          
1996-01-11 18   16.9    45.0            2     65          
1996-01-12 00   16.8    43.7            2     65          
1996-01-12 06   17.0    42.5            1     45          
1996-01-12 12   17.2    41.5            2     55          
1996-01-12 18   17.5    40.7            2     55          
1996-01-13 00   17.6    39.8            2     55          
1996-01-13 06   17.6    38.9            2     65          
1996-01-13 12   17.6    38.3            3     75          
1996-01-13 18   17.8    37.5            3     75          
1996-01-14 00   18.0    36.7            2     70          
1996-01-14 06   18.3    35.9            2     65          
1996-01-14 12   18.6    35.6            2     55          
1996-01-14 18   18.9    35.3            1     45          
1996-01-15 00   19.1    34.8            1     40          
1996-01-15 06   19.3    34.3                  25          
Winds are 1-min average.

Tropical cyclone tracks developed by Michael Bath using data from the Joint Typhoon Warning Centre Best Tracks and Google Maps.


[Australian Severe Weather index] [Copyright Notice] [Email Contacts] [Search This Site] [Privacy Policy]
Document: tropical_cyclone_bonita.htm Updated: 18 September 2016